sensor_id;sensor_type;location;lat;lon;timestamp;P1;durP1;ratioP1;P2;durP2;ratioP2
37309;SDS011;23195;47.744;7.358;2023-07-20T00:01:52;2.57;;;1.47;;
37309;SDS011;23195;47.744;7.358;2023-07-20T00:04:18;6.33;;;1.90;;
37309;SDS011;23195;47.744;7.358;2023-07-20T00:06:44;4.67;;;1.70;;
37309;SDS011;23195;47.744;7.358;2023-07-20T00:09:10;2.40;;;1.60;;
37309;SDS011;23195;47.744;7.358;2023-07-20T00:11:36;2.03;;;1.60;;
37309;SDS011;23195;47.744;7.358;2023-07-20T00:14:04;2.13;;;1.90;;
37309;SDS011;23195;47.744;7.358;2023-07-20T00:16:30;3.87;;;1.63;;
37309;SDS011;23195;47.744;7.358;2023-07-20T00:18:56;5.63;;;2.00;;
37309;SDS011;23195;47.744;7.358;2023-07-20T00:21:22;6.13;;;2.17;;
37309;SDS011;23195;47.744;7.358;2023-07-20T00:23:48;4.23;;;1.50;;
37309;SDS011;23195;47.744;7.358;2023-07-20T00:26:17;3.23;;;1.87;;
37309;SDS011;23195;47.744;7.358;2023-07-20T00:28:42;6.63;;;2.03;;
37309;SDS011;23195;47.744;7.358;2023-07-20T00:31:08;2.50;;;1.70;;
37309;SDS011;23195;47.744;7.358;2023-07-20T00:33:34;4.10;;;1.77;;
37309;SDS011;23195;47.744;7.358;2023-07-20T00:36:00;4.50;;;1.93;;
37309;SDS011;23195;47.744;7.358;2023-07-20T00:38:25;3.63;;;1.67;;
37309;SDS011;23195;47.744;7.358;2023-07-20T00:40:51;3.97;;;2.10;;
37309;SDS011;23195;47.744;7.358;2023-07-20T00:43:17;4.50;;;2.07;;
37309;SDS011;23195;47.744;7.358;2023-07-20T00:45:43;4.27;;;1.73;;
37309;SDS011;23195;47.744;7.358;2023-07-20T00:48:09;5.40;;;1.77;;
37309;SDS011;23195;47.744;7.358;2023-07-20T00:50:36;4.03;;;1.77;;
37309;SDS011;23195;47.744;7.358;2023-07-20T00:53:02;3.90;;;1.60;;
37309;SDS011;23195;47.744;7.358;2023-07-20T00:55:32;2.73;;;1.50;;
37309;SDS011;23195;47.744;7.358;2023-07-20T00:57:59;2.03;;;1.70;;
37309;SDS011;23195;47.744;7.358;2023-07-20T01:00:25;3.40;;;1.80;;
37309;SDS011;23195;47.744;7.358;2023-07-20T01:02:51;4.53;;;1.97;;
37309;SDS011;23195;47.744;7.358;2023-07-20T01:05:17;2.57;;;1.70;;
37309;SDS011;23195;47.744;7.358;2023-07-20T01:07:49;2.20;;;1.80;;
37309;SDS011;23195;47.744;7.358;2023-07-20T01:10:27;6.77;;;1.73;;
37309;SDS011;23195;47.744;7.358;2023-07-20T01:12:58;4.07;;;1.77;;
37309;SDS011;23195;47.744;7.358;2023-07-20T01:15:27;3.13;;;1.73;;
37309;SDS011;23195;47.744;7.358;2023-07-20T01:17:52;2.90;;;1.60;;
37309;SDS011;23195;47.744;7.358;2023-07-20T01:20:19;3.00;;;1.33;;
37309;SDS011;23195;47.744;7.358;2023-07-20T01:33:48;3.17;;;1.93;;
37309;SDS011;23195;47.744;7.358;2023-07-20T01:36:23;3.57;;;1.77;;
37309;SDS011;23195;47.744;7.358;2023-07-20T01:38:51;4.17;;;1.97;;
37309;SDS011;23195;47.744;7.358;2023-07-20T01:41:17;3.93;;;1.53;;
37309;SDS011;23195;47.744;7.358;2023-07-20T01:43:43;4.33;;;1.80;;
37309;SDS011;23195;47.744;7.358;2023-07-20T01:46:09;2.70;;;1.67;;
37309;SDS011;23195;47.744;7.358;2023-07-20T01:48:35;4.73;;;1.97;;
37309;SDS011;23195;47.744;7.358;2023-07-20T01:51:01;2.90;;;1.50;;
37309;SDS011;23195;47.744;7.358;2023-07-20T01:53:27;4.60;;;1.80;;
37309;SDS011;23195;47.744;7.358;2023-07-20T01:55:59;2.47;;;1.80;;
37309;SDS011;23195;47.744;7.358;2023-07-20T01:58:24;3.67;;;1.63;;
37309;SDS011;23195;47.744;7.358;2023-07-20T02:00:50;7.47;;;1.93;;
37309;SDS011;23195;47.744;7.358;2023-07-20T02:03:16;1.73;;;1.50;;
37309;SDS011;23195;47.744;7.358;2023-07-20T02:05:42;3.27;;;1.80;;
37309;SDS011;23195;47.744;7.358;2023-07-20T02:08:08;3.57;;;1.67;;
37309;SDS011;23195;47.744;7.358;2023-07-20T02:10:37;2.83;;;1.80;;
37309;SDS011;23195;47.744;7.358;2023-07-20T02:13:03;2.40;;;1.80;;
37309;SDS011;23195;47.744;7.358;2023-07-20T02:15:29;2.47;;;1.60;;
37309;SDS011;23195;47.744;7.358;2023-07-20T02:17:54;4.30;;;1.70;;
37309;SDS011;23195;47.744;7.358;2023-07-20T02:20:20;4.43;;;1.70;;
37309;SDS011;23195;47.744;7.358;2023-07-20T02:22:46;6.57;;;1.70;;
37309;SDS011;23195;47.744;7.358;2023-07-20T02:25:12;3.77;;;1.57;;
37309;SDS011;23195;47.744;7.358;2023-07-20T02:27:38;3.10;;;1.90;;
37309;SDS011;23195;47.744;7.358;2023-07-20T02:30:04;5.10;;;1.60;;
37309;SDS011;23195;47.744;7.358;2023-07-20T02:32:30;4.47;;;1.70;;
37309;SDS011;23195;47.744;7.358;2023-07-20T02:35:02;3.53;;;1.60;;
37309;SDS011;23195;47.744;7.358;2023-07-20T02:37:28;5.90;;;1.43;;
37309;SDS011;23195;47.744;7.358;2023-07-20T02:39:54;7.47;;;1.90;;
37309;SDS011;23195;47.744;7.358;2023-07-20T02:42:20;3.37;;;1.80;;
37309;SDS011;23195;47.744;7.358;2023-07-20T02:44:47;1.90;;;1.80;;
37309;SDS011;23195;47.744;7.358;2023-07-20T02:47:14;3.33;;;2.03;;
37309;SDS011;23195;47.744;7.358;2023-07-20T02:49:40;3.50;;;1.70;;
37309;SDS011;23195;47.744;7.358;2023-07-20T02:52:06;5.23;;;1.80;;
37309;SDS011;23195;47.744;7.358;2023-07-20T02:54:31;3.30;;;1.57;;
37309;SDS011;23195;47.744;7.358;2023-07-20T02:56:57;3.77;;;1.50;;
37309;SDS011;23195;47.744;7.358;2023-07-20T02:59:29;3.63;;;1.63;;
37309;SDS011;23195;47.744;7.358;2023-07-20T03:01:55;2.73;;;1.60;;
37309;SDS011;23195;47.744;7.358;2023-07-20T03:04:21;3.10;;;1.67;;
37309;SDS011;23195;47.744;7.358;2023-07-20T03:06:46;4.93;;;1.73;;
37309;SDS011;23195;47.744;7.358;2023-07-20T03:09:12;3.60;;;1.70;;
37309;SDS011;23195;47.744;7.358;2023-07-20T03:11:38;4.70;;;1.80;;
37309;SDS011;23195;47.744;7.358;2023-07-20T03:14:04;4.67;;;1.70;;
37309;SDS011;23195;47.744;7.358;2023-07-20T03:16:30;4.17;;;1.70;;
37309;SDS011;23195;47.744;7.358;2023-07-20T03:18:58;4.67;;;2.00;;
37309;SDS011;23195;47.744;7.358;2023-07-20T03:21:25;1.97;;;1.60;;
37309;SDS011;23195;47.744;7.358;2023-07-20T03:23:51;2.13;;;1.57;;
37309;SDS011;23195;47.744;7.358;2023-07-20T03:26:17;1.77;;;1.57;;
37309;SDS011;23195;47.744;7.358;2023-07-20T03:28:43;3.90;;;1.80;;
37309;SDS011;23195;47.744;7.358;2023-07-20T03:31:09;4.87;;;1.63;;
37309;SDS011;23195;47.744;7.358;2023-07-20T03:33:34;3.30;;;1.73;;
37309;SDS011;23195;47.744;7.358;2023-07-20T03:36:00;3.17;;;1.50;;
37309;SDS011;23195;47.744;7.358;2023-07-20T03:38:26;4.13;;;1.77;;
37309;SDS011;23195;47.744;7.358;2023-07-20T03:40:53;2.73;;;1.70;;
37309;SDS011;23195;47.744;7.358;2023-07-20T03:43:20;5.13;;;1.60;;
37309;SDS011;23195;47.744;7.358;2023-07-20T03:45:49;2.57;;;1.90;;
37309;SDS011;23195;47.744;7.358;2023-07-20T03:48:16;2.50;;;1.80;;
37309;SDS011;23195;47.744;7.358;2023-07-20T03:50:47;5.83;;;1.67;;
37309;SDS011;23195;47.744;7.358;2023-07-20T03:53:17;5.50;;;1.67;;
37309;SDS011;23195;47.744;7.358;2023-07-20T03:55:50;2.87;;;1.67;;
37309;SDS011;23195;47.744;7.358;2023-07-20T03:58:17;1.60;;;1.33;;
37309;SDS011;23195;47.744;7.358;2023-07-20T04:00:50;1.60;;;1.37;;
37309;SDS011;23195;47.744;7.358;2023-07-20T04:03:17;6.23;;;1.80;;
37309;SDS011;23195;47.744;7.358;2023-07-20T04:05:44;4.07;;;1.70;;
37309;SDS011;23195;47.744;7.358;2023-07-20T04:08:10;2.13;;;1.53;;
37309;SDS011;23195;47.744;7.358;2023-07-20T04:10:37;3.10;;;1.43;;
37309;SDS011;23195;47.744;7.358;2023-07-20T04:13:03;3.93;;;1.43;;
37309;SDS011;23195;47.744;7.358;2023-07-20T04:15:29;3.67;;;1.70;;
37309;SDS011;23195;47.744;7.358;2023-07-20T04:17:56;2.40;;;1.70;;
37309;SDS011;23195;47.744;7.358;2023-07-20T04:20:22;5.17;;;1.80;;
37309;SDS011;23195;47.744;7.358;2023-07-20T04:22:48;3.23;;;1.67;;
37309;SDS011;23195;47.744;7.358;2023-07-20T04:25:14;2.30;;;1.60;;
37309;SDS011;23195;47.744;7.358;2023-07-20T04:27:40;2.40;;;1.40;;
37309;SDS011;23195;47.744;7.358;2023-07-20T04:30:07;3.30;;;1.60;;
37309;SDS011;23195;47.744;7.358;2023-07-20T04:32:34;4.30;;;1.60;;
37309;SDS011;23195;47.744;7.358;2023-07-20T04:34:59;3.07;;;1.60;;
37309;SDS011;23195;47.744;7.358;2023-07-20T04:37:25;3.47;;;1.60;;
37309;SDS011;23195;47.744;7.358;2023-07-20T04:39:51;2.17;;;1.50;;
37309;SDS011;23195;47.744;7.358;2023-07-20T04:42:17;2.00;;;1.63;;
37309;SDS011;23195;47.744;7.358;2023-07-20T04:44:43;2.43;;;1.50;;
37309;SDS011;23195;47.744;7.358;2023-07-20T04:47:08;1.77;;;1.67;;
37309;SDS011;23195;47.744;7.358;2023-07-20T04:49:34;2.27;;;1.60;;
37309;SDS011;23195;47.744;7.358;2023-07-20T04:52:00;5.47;;;1.60;;
37309;SDS011;23195;47.744;7.358;2023-07-20T04:54:27;3.57;;;1.53;;
37309;SDS011;23195;47.744;7.358;2023-07-20T04:56:53;2.57;;;1.77;;
37309;SDS011;23195;47.744;7.358;2023-07-20T04:59:19;2.03;;;1.40;;
37309;SDS011;23195;47.744;7.358;2023-07-20T05:01:45;3.63;;;2.00;;
37309;SDS011;23195;47.744;7.358;2023-07-20T05:04:11;3.93;;;1.70;;
37309;SDS011;23195;47.744;7.358;2023-07-20T05:06:36;3.73;;;1.47;;
37309;SDS011;23195;47.744;7.358;2023-07-20T05:09:06;2.20;;;1.50;;
37309;SDS011;23195;47.744;7.358;2023-07-20T05:11:40;2.93;;;1.83;;
37309;SDS011;23195;47.744;7.358;2023-07-20T05:14:16;2.67;;;1.90;;
37309;SDS011;23195;47.744;7.358;2023-07-20T05:16:42;4.13;;;1.73;;
37309;SDS011;23195;47.744;7.358;2023-07-20T05:19:13;4.33;;;1.47;;
37309;SDS011;23195;47.744;7.358;2023-07-20T05:21:41;3.40;;;1.60;;
37309;SDS011;23195;47.744;7.358;2023-07-20T05:24:07;3.77;;;1.80;;
37309;SDS011;23195;47.744;7.358;2023-07-20T05:26:36;5.23;;;1.80;;
37309;SDS011;23195;47.744;7.358;2023-07-20T05:29:03;4.63;;;1.77;;
37309;SDS011;23195;47.744;7.358;2023-07-20T05:31:28;5.47;;;1.93;;
37309;SDS011;23195;47.744;7.358;2023-07-20T05:33:58;6.50;;;1.93;;
37309;SDS011;23195;47.744;7.358;2023-07-20T05:36:24;5.60;;;1.67;;
37309;SDS011;23195;47.744;7.358;2023-07-20T05:38:50;3.23;;;1.90;;
37309;SDS011;23195;47.744;7.358;2023-07-20T05:41:18;5.03;;;1.63;;
37309;SDS011;23195;47.744;7.358;2023-07-20T05:47:23;5.97;;;1.93;;
37309;SDS011;23195;47.744;7.358;2023-07-20T05:49:56;2.93;;;1.53;;
37309;SDS011;23195;47.744;7.358;2023-07-20T05:52:22;3.20;;;1.87;;
37309;SDS011;23195;47.744;7.358;2023-07-20T05:54:48;3.77;;;1.87;;
37309;SDS011;23195;47.744;7.358;2023-07-20T05:57:14;3.30;;;1.70;;
37309;SDS011;23195;47.744;7.358;2023-07-20T05:59:39;4.57;;;1.87;;
37309;SDS011;23195;47.744;7.358;2023-07-20T06:02:09;4.07;;;1.87;;
37309;SDS011;23195;47.744;7.358;2023-07-20T06:04:35;5.47;;;1.70;;
37309;SDS011;23195;47.744;7.358;2023-07-20T06:07:01;5.67;;;1.97;;
37309;SDS011;23195;47.744;7.358;2023-07-20T06:09:27;4.17;;;2.00;;
37309;SDS011;23195;47.744;7.358;2023-07-20T06:11:53;5.63;;;1.90;;
37309;SDS011;23195;47.744;7.358;2023-07-20T06:14:22;5.43;;;2.20;;
37309;SDS011;23195;47.744;7.358;2023-07-20T06:16:47;8.47;;;2.60;;
37309;SDS011;23195;47.744;7.358;2023-07-20T06:19:13;5.73;;;2.30;;
37309;SDS011;23195;47.744;7.358;2023-07-20T06:21:39;9.33;;;2.67;;
37309;SDS011;23195;47.744;7.358;2023-07-20T06:24:05;4.93;;;2.67;;
37309;SDS011;23195;47.744;7.358;2023-07-20T06:26:31;9.97;;;2.57;;
37309;SDS011;23195;47.744;7.358;2023-07-20T06:29:04;6.13;;;2.50;;
37309;SDS011;23195;47.744;7.358;2023-07-20T06:32:02;7.77;;;2.57;;
37309;SDS011;23195;47.744;7.358;2023-07-20T06:38:25;9.47;;;2.80;;
37309;SDS011;23195;47.744;7.358;2023-07-20T06:41:07;6.23;;;2.77;;
37309;SDS011;23195;47.744;7.358;2023-07-20T06:50:50;7.70;;;2.60;;
37309;SDS011;23195;47.744;7.358;2023-07-20T07:03:42;4.10;;;3.10;;
37309;SDS011;23195;47.744;7.358;2023-07-20T07:06:34;11.70;;;2.90;;
37309;SDS011;23195;47.744;7.358;2023-07-20T07:25:54;5.63;;;3.20;;
37309;SDS011;23195;47.744;7.358;2023-07-20T07:28:52;6.53;;;3.10;;
37309;SDS011;23195;47.744;7.358;2023-07-20T07:32:05;5.60;;;2.67;;
37309;SDS011;23195;47.744;7.358;2023-07-20T07:34:36;6.93;;;3.30;;
37309;SDS011;23195;47.744;7.358;2023-07-20T07:37:20;7.20;;;3.10;;
37309;SDS011;23195;47.744;7.358;2023-07-20T07:39:58;4.87;;;2.83;;
37309;SDS011;23195;47.744;7.358;2023-07-20T07:42:40;6.30;;;3.07;;
37309;SDS011;23195;47.744;7.358;2023-07-20T07:45:09;6.10;;;2.87;;
37309;SDS011;23195;47.744;7.358;2023-07-20T07:47:54;3.57;;;2.83;;
37309;SDS011;23195;47.744;7.358;2023-07-20T07:50:41;8.10;;;2.77;;
37309;SDS011;23195;47.744;7.358;2023-07-20T07:53:23;3.40;;;2.60;;
37309;SDS011;23195;47.744;7.358;2023-07-20T07:56:17;5.68;;;2.65;;
37309;SDS011;23195;47.744;7.358;2023-07-20T07:59:27;8.43;;;2.95;;
37309;SDS011;23195;47.744;7.358;2023-07-20T08:02:06;5.55;;;2.72;;
37309;SDS011;23195;47.744;7.358;2023-07-20T08:08:30;10.10;;;2.83;;
37309;SDS011;23195;47.744;7.358;2023-07-20T08:11:30;6.23;;;2.97;;
37309;SDS011;23195;47.744;7.358;2023-07-20T08:18:18;6.07;;;2.90;;
37309;SDS011;23195;47.744;7.358;2023-07-20T08:31:01;6.75;;;2.97;;
37309;SDS011;23195;47.744;7.358;2023-07-20T08:37:44;5.50;;;3.20;;
37309;SDS011;23195;47.744;7.358;2023-07-20T08:40:26;4.87;;;2.90;;
37309;SDS011;23195;47.744;7.358;2023-07-20T08:43:34;4.30;;;2.80;;
37309;SDS011;23195;47.744;7.358;2023-07-20T08:49:44;2.97;;;2.67;;
37309;SDS011;23195;47.744;7.358;2023-07-20T08:52:52;6.13;;;2.65;;
37309;SDS011;23195;47.744;7.358;2023-07-20T09:04:26;5.10;;;2.47;;
37309;SDS011;23195;47.744;7.358;2023-07-20T09:10:34;5.23;;;2.53;;
37309;SDS011;23195;47.744;7.358;2023-07-20T09:16:53;4.70;;;2.37;;
37309;SDS011;23195;47.744;7.358;2023-07-20T09:20:14;6.27;;;2.53;;
37309;SDS011;23195;47.744;7.358;2023-07-20T09:30:26;4.60;;;2.07;;
37309;SDS011;23195;47.744;7.358;2023-07-20T10:03:32;9.03;;;2.83;;
37309;SDS011;23195;47.744;7.358;2023-07-20T10:06:52;5.43;;;2.70;;
37309;SDS011;23195;47.744;7.358;2023-07-20T10:09:25;6.83;;;2.60;;
37309;SDS011;23195;47.744;7.358;2023-07-20T10:12:34;3.40;;;2.20;;
37309;SDS011;23195;47.744;7.358;2023-07-20T10:18:42;4.67;;;2.27;;
37309;SDS011;23195;47.744;7.358;2023-07-20T10:24:51;3.97;;;2.37;;
37309;SDS011;23195;47.744;7.358;2023-07-20T10:30:51;3.03;;;1.90;;
37309;SDS011;23195;47.744;7.358;2023-07-20T10:33:36;5.97;;;1.70;;
37309;SDS011;23195;47.744;7.358;2023-07-20T10:39:57;3.90;;;2.00;;
37309;SDS011;23195;47.744;7.358;2023-07-20T10:46:52;5.70;;;2.20;;
37309;SDS011;23195;47.744;7.358;2023-07-20T10:49:26;4.17;;;2.20;;
37309;SDS011;23195;47.744;7.358;2023-07-20T10:55:39;3.13;;;1.90;;
37309;SDS011;23195;47.744;7.358;2023-07-20T11:01:48;4.07;;;2.50;;
37309;SDS011;23195;47.744;7.358;2023-07-20T11:14:23;3.00;;;1.90;;
37309;SDS011;23195;47.744;7.358;2023-07-20T11:20:13;7.83;;;2.40;;
37309;SDS011;23195;47.744;7.358;2023-07-20T11:23:02;3.03;;;2.00;;
37309;SDS011;23195;47.744;7.358;2023-07-20T11:25:51;4.23;;;2.07;;
37309;SDS011;23195;47.744;7.358;2023-07-20T11:28:51;3.70;;;1.90;;
37309;SDS011;23195;47.744;7.358;2023-07-20T11:31:44;3.17;;;2.00;;
37309;SDS011;23195;47.744;7.358;2023-07-20T11:34:25;5.93;;;1.90;;
37309;SDS011;23195;47.744;7.358;2023-07-20T11:40:38;2.97;;;1.80;;
37309;SDS011;23195;47.744;7.358;2023-07-20T11:43:53;4.23;;;1.87;;
37309;SDS011;23195;47.744;7.358;2023-07-20T11:46:34;6.37;;;2.03;;
37309;SDS011;23195;47.744;7.358;2023-07-20T11:49:30;7.10;;;2.07;;
37309;SDS011;23195;47.744;7.358;2023-07-20T11:52:19;6.07;;;1.90;;
37309;SDS011;23195;47.744;7.358;2023-07-20T11:58:33;3.40;;;1.80;;
37309;SDS011;23195;47.744;7.358;2023-07-20T12:01:34;4.53;;;1.80;;
37309;SDS011;23195;47.744;7.358;2023-07-20T12:04:10;5.17;;;2.00;;
37309;SDS011;23195;47.744;7.358;2023-07-20T12:10:22;2.93;;;1.87;;
37309;SDS011;23195;47.744;7.358;2023-07-20T12:16:15;3.83;;;1.70;;
37309;SDS011;23195;47.744;7.358;2023-07-20T12:19:06;3.73;;;1.87;;
37309;SDS011;23195;47.744;7.358;2023-07-20T12:22:13;2.03;;;1.70;;
37309;SDS011;23195;47.744;7.358;2023-07-20T12:25:25;2.37;;;1.40;;
37309;SDS011;23195;47.744;7.358;2023-07-20T12:28:42;4.20;;;1.80;;
37309;SDS011;23195;47.744;7.358;2023-07-20T12:37:45;3.00;;;1.40;;
37309;SDS011;23195;47.744;7.358;2023-07-20T12:40:54;5.80;;;1.80;;
37309;SDS011;23195;47.744;7.358;2023-07-20T12:43:37;2.50;;;1.87;;
37309;SDS011;23195;47.744;7.358;2023-07-20T12:46:46;4.30;;;1.60;;
37309;SDS011;23195;47.744;7.358;2023-07-20T13:03:44;3.00;;;1.43;;
37309;SDS011;23195;47.744;7.358;2023-07-20T13:13:44;2.53;;;1.40;;
37309;SDS011;23195;47.744;7.358;2023-07-20T13:33:21;4.73;;;1.70;;
37309;SDS011;23195;47.744;7.358;2023-07-20T13:58:17;5.23;;;1.53;;
37309;SDS011;23195;47.744;7.358;2023-07-20T14:04:10;3.57;;;1.40;;
37309;SDS011;23195;47.744;7.358;2023-07-20T14:10:34;1.97;;;1.33;;
37309;SDS011;23195;47.744;7.358;2023-07-20T14:20:24;3.27;;;1.40;;
37309;SDS011;23195;47.744;7.358;2023-07-20T14:36:51;1.83;;;1.43;;
37309;SDS011;23195;47.744;7.358;2023-07-20T14:53:50;1.63;;;1.30;;
37309;SDS011;23195;47.744;7.358;2023-07-20T14:56:37;4.03;;;1.53;;
37309;SDS011;23195;47.744;7.358;2023-07-20T15:06:10;3.53;;;1.57;;
37309;SDS011;23195;47.744;7.358;2023-07-20T15:15:21;4.10;;;1.50;;
37309;SDS011;23195;47.744;7.358;2023-07-20T15:18:26;2.60;;;1.60;;
37309;SDS011;23195;47.744;7.358;2023-07-20T15:27:31;3.10;;;1.40;;
37309;SDS011;23195;47.744;7.358;2023-07-20T15:40:26;2.23;;;1.83;;
37309;SDS011;23195;47.744;7.358;2023-07-20T15:43:13;2.43;;;1.37;;
37309;SDS011;23195;47.744;7.358;2023-07-20T15:56:06;2.57;;;1.50;;
37309;SDS011;23195;47.744;7.358;2023-07-20T15:58:40;6.63;;;2.13;;
37309;SDS011;23195;47.744;7.358;2023-07-20T16:01:44;5.23;;;2.00;;
37309;SDS011;23195;47.744;7.358;2023-07-20T16:05:11;2.27;;;1.90;;
37309;SDS011;23195;47.744;7.358;2023-07-20T16:08:03;2.60;;;1.90;;
37309;SDS011;23195;47.744;7.358;2023-07-20T16:11:08;5.13;;;2.10;;
37309;SDS011;23195;47.744;7.358;2023-07-20T16:14:18;2.13;;;1.60;;
37309;SDS011;23195;47.744;7.358;2023-07-20T16:17:06;2.00;;;1.70;;
37309;SDS011;23195;47.744;7.358;2023-07-20T16:20:15;3.27;;;1.87;;
37309;SDS011;23195;47.744;7.358;2023-07-20T16:33:04;2.47;;;1.63;;
37309;SDS011;23195;47.744;7.358;2023-07-20T16:36:29;1.87;;;1.70;;
37309;SDS011;23195;47.744;7.358;2023-07-20T16:39:34;3.23;;;1.77;;
37309;SDS011;23195;47.744;7.358;2023-07-20T16:46:08;3.50;;;2.10;;
37309;SDS011;23195;47.744;7.358;2023-07-20T16:49:04;4.93;;;2.00;;
37309;SDS011;23195;47.744;7.358;2023-07-20T16:52:01;3.50;;;2.00;;
37309;SDS011;23195;47.744;7.358;2023-07-20T16:54:59;2.20;;;1.77;;
37309;SDS011;23195;47.744;7.358;2023-07-20T17:01:21;5.50;;;2.13;;
37309;SDS011;23195;47.744;7.358;2023-07-20T17:04:18;3.00;;;2.00;;
37309;SDS011;23195;47.744;7.358;2023-07-20T17:06:51;4.47;;;2.17;;
37309;SDS011;23195;47.744;7.358;2023-07-20T17:09:47;4.17;;;2.13;;
37309;SDS011;23195;47.744;7.358;2023-07-20T17:12:49;4.10;;;2.20;;
37309;SDS011;23195;47.744;7.358;2023-07-20T17:19:11;2.70;;;2.13;;
37309;SDS011;23195;47.744;7.358;2023-07-20T17:25:29;4.10;;;2.20;;
37309;SDS011;23195;47.744;7.358;2023-07-20T17:34:36;4.87;;;2.50;;
37309;SDS011;23195;47.744;7.358;2023-07-20T17:37:26;3.83;;;2.13;;
37309;SDS011;23195;47.744;7.358;2023-07-20T17:40:14;5.20;;;2.60;;
37309;SDS011;23195;47.744;7.358;2023-07-20T17:46:46;3.23;;;2.13;;
37309;SDS011;23195;47.744;7.358;2023-07-20T17:49:51;4.67;;;2.37;;
37309;SDS011;23195;47.744;7.358;2023-07-20T17:55:55;4.97;;;2.67;;
37309;SDS011;23195;47.744;7.358;2023-07-20T17:59:09;7.57;;;3.43;;
37309;SDS011;23195;47.744;7.358;2023-07-20T18:02:25;3.63;;;2.53;;
37309;SDS011;23195;47.744;7.358;2023-07-20T18:11:24;5.03;;;2.60;;
37309;SDS011;23195;47.744;7.358;2023-07-20T18:17:37;6.10;;;2.60;;
37309;SDS011;23195;47.744;7.358;2023-07-20T18:20:33;4.50;;;3.27;;
37309;SDS011;23195;47.744;7.358;2023-07-20T18:23:15;4.37;;;2.70;;
37309;SDS011;23195;47.744;7.358;2023-07-20T18:26:30;5.77;;;2.77;;
37309;SDS011;23195;47.744;7.358;2023-07-20T18:29:24;3.50;;;2.73;;
37309;SDS011;23195;47.744;7.358;2023-07-20T18:32:32;5.67;;;2.87;;
37309;SDS011;23195;47.744;7.358;2023-07-20T18:42:06;3.63;;;2.30;;
37309;SDS011;23195;47.744;7.358;2023-07-20T18:51:18;3.97;;;3.30;;
37309;SDS011;23195;47.744;7.358;2023-07-20T18:54:31;7.63;;;2.73;;
37309;SDS011;23195;47.744;7.358;2023-07-20T18:57:29;2.73;;;2.47;;
37309;SDS011;23195;47.744;7.358;2023-07-20T19:00:41;4.53;;;2.73;;
37309;SDS011;23195;47.744;7.358;2023-07-20T19:10:19;6.57;;;2.73;;
37309;SDS011;23195;47.744;7.358;2023-07-20T19:23:17;3.87;;;2.57;;
37309;SDS011;23195;47.744;7.358;2023-07-20T19:29:32;5.87;;;3.00;;
37309;SDS011;23195;47.744;7.358;2023-07-20T19:38:51;2.83;;;2.33;;
37309;SDS011;23195;47.744;7.358;2023-07-20T19:41:43;3.43;;;2.30;;
37309;SDS011;23195;47.744;7.358;2023-07-20T19:47:35;3.90;;;2.30;;
37309;SDS011;23195;47.744;7.358;2023-07-20T19:54:08;4.57;;;2.50;;
37309;SDS011;23195;47.744;7.358;2023-07-20T20:03:52;4.83;;;2.63;;
37309;SDS011;23195;47.744;7.358;2023-07-20T20:06:27;4.17;;;2.33;;
37309;SDS011;23195;47.744;7.358;2023-07-20T20:09:37;3.77;;;2.40;;
37309;SDS011;23195;47.744;7.358;2023-07-20T20:12:51;3.33;;;2.07;;
37309;SDS011;23195;47.744;7.358;2023-07-20T20:22:36;6.07;;;2.50;;
37309;SDS011;23195;47.744;7.358;2023-07-20T20:31:33;7.00;;;2.57;;
37309;SDS011;23195;47.744;7.358;2023-07-20T20:34:05;3.23;;;2.20;;
37309;SDS011;23195;47.744;7.358;2023-07-20T20:36:40;7.90;;;2.50;;
37309;SDS011;23195;47.744;7.358;2023-07-20T20:39:08;4.23;;;2.20;;
37309;SDS011;23195;47.744;7.358;2023-07-20T20:41:34;3.30;;;2.50;;
37309;SDS011;23195;47.744;7.358;2023-07-20T20:44:09;2.20;;;2.00;;
37309;SDS011;23195;47.744;7.358;2023-07-20T20:46:39;5.33;;;2.30;;
37309;SDS011;23195;47.744;7.358;2023-07-20T20:49:14;5.93;;;2.40;;
37309;SDS011;23195;47.744;7.358;2023-07-20T20:51:41;4.87;;;2.60;;
37309;SDS011;23195;47.744;7.358;2023-07-20T20:54:07;3.87;;;2.53;;
37309;SDS011;23195;47.744;7.358;2023-07-20T20:56:35;5.53;;;2.70;;
